sensor_id;sensor_type;location;lat;lon;timestamp;P1;durP1;ratioP1;P2;durP2;ratioP2
25497;SDS011;13406;53.380;7.226;2023-09-12T00:00:15;16.10;;;13.10;;
25497;SDS011;13406;53.380;7.226;2023-09-12T00:02:41;16.07;;;12.90;;
25497;SDS011;13406;53.380;7.226;2023-09-12T00:05:06;16.37;;;12.57;;
25497;SDS011;13406;53.380;7.226;2023-09-12T00:07:32;16.13;;;12.83;;
25497;SDS011;13406;53.380;7.226;2023-09-12T00:09:58;13.87;;;12.17;;
25497;SDS011;13406;53.380;7.226;2023-09-12T00:12:23;14.73;;;12.90;;
25497;SDS011;13406;53.380;7.226;2023-09-12T00:14:52;14.17;;;12.67;;
25497;SDS011;13406;53.380;7.226;2023-09-12T00:17:17;14.83;;;12.60;;
25497;SDS011;13406;53.380;7.226;2023-09-12T00:19:43;13.53;;;11.90;;
25497;SDS011;13406;53.380;7.226;2023-09-12T00:22:08;16.87;;;15.10;;
25497;SDS011;13406;53.380;7.226;2023-09-12T00:27:03;15.17;;;13.57;;
25497;SDS011;13406;53.380;7.226;2023-09-12T00:29:30;16.00;;;14.37;;
25497;SDS011;13406;53.380;7.226;2023-09-12T00:31:55;19.03;;;15.40;;
25497;SDS011;13406;53.380;7.226;2023-09-12T00:34:20;18.50;;;15.77;;
25497;SDS011;13406;53.380;7.226;2023-09-12T00:36:46;19.30;;;16.90;;
25497;SDS011;13406;53.380;7.226;2023-09-12T00:39:11;20.37;;;18.27;;
25497;SDS011;13406;53.380;7.226;2023-09-12T00:41:37;17.87;;;15.90;;
25497;SDS011;13406;53.380;7.226;2023-09-12T00:44:02;19.03;;;15.63;;
25497;SDS011;13406;53.380;7.226;2023-09-12T00:46:27;18.67;;;15.30;;
25497;SDS011;13406;53.380;7.226;2023-09-12T00:48:53;18.70;;;16.53;;
25497;SDS011;13406;53.380;7.226;2023-09-12T00:51:20;19.00;;;15.50;;
25497;SDS011;13406;53.380;7.226;2023-09-12T00:53:47;23.33;;;17.50;;
25497;SDS011;13406;53.380;7.226;2023-09-12T00:56:13;19.17;;;16.10;;
25497;SDS011;13406;53.380;7.226;2023-09-12T00:58:39;17.33;;;15.30;;
25497;SDS011;13406;53.380;7.226;2023-09-12T01:01:05;17.23;;;14.40;;
25497;SDS011;13406;53.380;7.226;2023-09-12T01:03:30;17.60;;;15.30;;
25497;SDS011;13406;53.380;7.226;2023-09-12T01:05:57;21.53;;;17.67;;
25497;SDS011;13406;53.380;7.226;2023-09-12T01:08:24;19.67;;;16.67;;
25497;SDS011;13406;53.380;7.226;2023-09-12T01:10:49;17.83;;;15.37;;
25497;SDS011;13406;53.380;7.226;2023-09-12T01:13:18;19.33;;;14.97;;
25497;SDS011;13406;53.380;7.226;2023-09-12T01:15:44;17.90;;;15.73;;
25497;SDS011;13406;53.380;7.226;2023-09-12T01:18:09;17.27;;;15.27;;
25497;SDS011;13406;53.380;7.226;2023-09-12T01:20:35;17.13;;;15.33;;
25497;SDS011;13406;53.380;7.226;2023-09-12T01:28:31;19.47;;;15.93;;
25497;SDS011;13406;53.380;7.226;2023-09-12T01:31:00;18.57;;;16.50;;
25497;SDS011;13406;53.380;7.226;2023-09-12T01:33:27;18.30;;;15.47;;
25497;SDS011;13406;53.380;7.226;2023-09-12T01:35:53;18.27;;;15.70;;
25497;SDS011;13406;53.380;7.226;2023-09-12T01:38:19;19.73;;;16.00;;
25497;SDS011;13406;53.380;7.226;2023-09-12T01:40:51;17.17;;;14.23;;
25497;SDS011;13406;53.380;7.226;2023-09-12T01:43:21;20.17;;;17.33;;
25497;SDS011;13406;53.380;7.226;2023-09-12T01:45:49;19.27;;;15.23;;
25497;SDS011;13406;53.380;7.226;2023-09-12T01:48:19;18.90;;;15.40;;
25497;SDS011;13406;53.380;7.226;2023-09-12T01:50:46;17.40;;;14.20;;
25497;SDS011;13406;53.380;7.226;2023-09-12T01:53:13;17.80;;;15.30;;
25497;SDS011;13406;53.380;7.226;2023-09-12T01:55:39;16.67;;;14.80;;
25497;SDS011;13406;53.380;7.226;2023-09-12T01:58:07;16.50;;;14.80;;
25497;SDS011;13406;53.380;7.226;2023-09-12T02:00:33;17.47;;;15.37;;
25497;SDS011;13406;53.380;7.226;2023-09-12T02:02:58;18.53;;;16.50;;
25497;SDS011;13406;53.380;7.226;2023-09-12T02:05:23;20.50;;;17.13;;
25497;SDS011;13406;53.380;7.226;2023-09-12T02:07:49;16.07;;;14.33;;
25497;SDS011;13406;53.380;7.226;2023-09-12T02:10:15;16.67;;;14.97;;
25497;SDS011;13406;53.380;7.226;2023-09-12T02:12:41;17.87;;;15.60;;
25497;SDS011;13406;53.380;7.226;2023-09-12T02:15:06;22.80;;;17.53;;
25497;SDS011;13406;53.380;7.226;2023-09-12T02:17:32;17.53;;;15.60;;
25497;SDS011;13406;53.380;7.226;2023-09-12T02:19:58;20.13;;;16.30;;
25497;SDS011;13406;53.380;7.226;2023-09-12T02:22:26;18.47;;;16.47;;
25497;SDS011;13406;53.380;7.226;2023-09-12T02:24:51;17.50;;;15.53;;
25497;SDS011;13406;53.380;7.226;2023-09-12T02:27:17;19.87;;;17.10;;
25497;SDS011;13406;53.380;7.226;2023-09-12T02:29:42;20.97;;;17.80;;
25497;SDS011;13406;53.380;7.226;2023-09-12T02:32:08;19.40;;;17.40;;
25497;SDS011;13406;53.380;7.226;2023-09-12T02:34:34;20.33;;;18.13;;
25497;SDS011;13406;53.380;7.226;2023-09-12T02:37:00;20.07;;;17.97;;
25497;SDS011;13406;53.380;7.226;2023-09-12T02:39:25;21.53;;;18.40;;
25497;SDS011;13406;53.380;7.226;2023-09-12T02:41:51;24.07;;;19.77;;
25497;SDS011;13406;53.380;7.226;2023-09-12T02:44:16;20.20;;;18.00;;
25497;SDS011;13406;53.380;7.226;2023-09-12T02:46:42;22.70;;;19.20;;
25497;SDS011;13406;53.380;7.226;2023-09-12T02:49:08;23.33;;;20.60;;
25497;SDS011;13406;53.380;7.226;2023-09-12T02:51:33;21.17;;;18.97;;
25497;SDS011;13406;53.380;7.226;2023-09-12T02:53:58;24.50;;;21.80;;
25497;SDS011;13406;53.380;7.226;2023-09-12T02:56:24;22.70;;;20.27;;
25497;SDS011;13406;53.380;7.226;2023-09-12T02:58:49;28.07;;;22.93;;
25497;SDS011;13406;53.380;7.226;2023-09-12T03:01:15;22.00;;;18.90;;
25497;SDS011;13406;53.380;7.226;2023-09-12T03:03:48;26.37;;;22.90;;
25497;SDS011;13406;53.380;7.226;2023-09-12T03:06:15;27.10;;;24.27;;
25497;SDS011;13406;53.380;7.226;2023-09-12T03:08:41;25.80;;;23.10;;
25497;SDS011;13406;53.380;7.226;2023-09-12T03:11:08;24.60;;;22.00;;
25497;SDS011;13406;53.380;7.226;2023-09-12T03:13:34;27.90;;;22.87;;
25497;SDS011;13406;53.380;7.226;2023-09-12T03:16:01;26.27;;;21.80;;
25497;SDS011;13406;53.380;7.226;2023-09-12T03:18:26;30.37;;;24.13;;
25497;SDS011;13406;53.380;7.226;2023-09-12T03:20:51;26.93;;;22.10;;
25497;SDS011;13406;53.380;7.226;2023-09-12T03:23:18;27.70;;;24.90;;
25497;SDS011;13406;53.380;7.226;2023-09-12T03:25:44;29.23;;;23.27;;
25497;SDS011;13406;53.380;7.226;2023-09-12T03:28:09;31.73;;;25.23;;
25497;SDS011;13406;53.380;7.226;2023-09-12T03:30:36;24.97;;;22.27;;
25497;SDS011;13406;53.380;7.226;2023-09-12T03:33:02;26.33;;;23.53;;
25497;SDS011;13406;53.380;7.226;2023-09-12T03:35:29;25.33;;;22.60;;
25497;SDS011;13406;53.380;7.226;2023-09-12T03:37:54;24.50;;;21.83;;
25497;SDS011;13406;53.380;7.226;2023-09-12T03:40:20;27.00;;;22.13;;
25497;SDS011;13406;53.380;7.226;2023-09-12T03:42:46;25.83;;;21.53;;
25497;SDS011;13406;53.380;7.226;2023-09-12T03:45:11;25.00;;;20.70;;
25497;SDS011;13406;53.380;7.226;2023-09-12T03:47:37;28.07;;;23.33;;
25497;SDS011;13406;53.380;7.226;2023-09-12T03:50:02;25.00;;;22.30;;
25497;SDS011;13406;53.380;7.226;2023-09-12T03:52:28;24.67;;;21.43;;
25497;SDS011;13406;53.380;7.226;2023-09-12T03:54:54;32.27;;;24.10;;
25497;SDS011;13406;53.380;7.226;2023-09-12T03:57:19;26.83;;;23.50;;
25497;SDS011;13406;53.380;7.226;2023-09-12T03:59:45;25.10;;;22.50;;
25497;SDS011;13406;53.380;7.226;2023-09-12T04:02:11;24.90;;;22.13;;
25497;SDS011;13406;53.380;7.226;2023-09-12T04:04:37;27.13;;;21.73;;
25497;SDS011;13406;53.380;7.226;2023-09-12T04:07:03;25.77;;;22.93;;
25497;SDS011;13406;53.380;7.226;2023-09-12T04:09:29;28.10;;;25.10;;
25497;SDS011;13406;53.380;7.226;2023-09-12T04:11:54;29.27;;;24.10;;
25497;SDS011;13406;53.380;7.226;2023-09-12T04:14:20;25.73;;;22.80;;
25497;SDS011;13406;53.380;7.226;2023-09-12T04:16:46;24.63;;;21.27;;
25497;SDS011;13406;53.380;7.226;2023-09-12T04:19:13;26.57;;;21.77;;
25497;SDS011;13406;53.380;7.226;2023-09-12T04:21:39;29.83;;;24.57;;
25497;SDS011;13406;53.380;7.226;2023-09-12T04:24:04;25.43;;;22.70;;
25497;SDS011;13406;53.380;7.226;2023-09-12T04:26:30;25.90;;;21.57;;
25497;SDS011;13406;53.380;7.226;2023-09-12T04:28:56;29.20;;;25.30;;
25497;SDS011;13406;53.380;7.226;2023-09-12T04:31:21;25.03;;;22.33;;
25497;SDS011;13406;53.380;7.226;2023-09-12T04:33:47;25.33;;;22.60;;
25497;SDS011;13406;53.380;7.226;2023-09-12T04:36:12;27.13;;;22.93;;
25497;SDS011;13406;53.380;7.226;2023-09-12T04:38:37;27.10;;;24.20;;
25497;SDS011;13406;53.380;7.226;2023-09-12T04:41:03;33.07;;;28.67;;
25497;SDS011;13406;53.380;7.226;2023-09-12T04:43:31;30.97;;;26.10;;
25497;SDS011;13406;53.380;7.226;2023-09-12T04:45:57;28.53;;;25.43;;
25497;SDS011;13406;53.380;7.226;2023-09-12T04:48:22;29.50;;;26.30;;
25497;SDS011;13406;53.380;7.226;2023-09-12T04:50:48;31.03;;;26.00;;
25497;SDS011;13406;53.380;7.226;2023-09-12T04:53:14;31.20;;;25.23;;
25497;SDS011;13406;53.380;7.226;2023-09-12T04:55:39;26.27;;;23.33;;
25497;SDS011;13406;53.380;7.226;2023-09-12T04:58:05;32.43;;;26.07;;
25497;SDS011;13406;53.380;7.226;2023-09-12T05:00:31;28.47;;;24.07;;
25497;SDS011;13406;53.380;7.226;2023-09-12T05:02:57;27.83;;;24.93;;
25497;SDS011;13406;53.380;7.226;2023-09-12T05:05:23;29.77;;;24.80;;
25497;SDS011;13406;53.380;7.226;2023-09-12T05:07:48;25.93;;;22.80;;
25497;SDS011;13406;53.380;7.226;2023-09-12T05:10:14;26.47;;;23.57;;
25497;SDS011;13406;53.380;7.226;2023-09-12T05:12:39;30.43;;;25.07;;
25497;SDS011;13406;53.380;7.226;2023-09-12T05:15:05;27.43;;;23.03;;
25497;SDS011;13406;53.380;7.226;2023-09-12T05:17:30;26.50;;;22.70;;
25497;SDS011;13406;53.380;7.226;2023-09-12T05:19:56;23.87;;;20.83;;
25497;SDS011;13406;53.380;7.226;2023-09-12T05:22:21;22.83;;;20.43;;
25497;SDS011;13406;53.380;7.226;2023-09-12T05:24:47;24.03;;;21.07;;
25497;SDS011;13406;53.380;7.226;2023-09-12T05:27:15;24.90;;;20.70;;
25497;SDS011;13406;53.380;7.226;2023-09-12T05:29:40;25.50;;;20.40;;
25497;SDS011;13406;53.380;7.226;2023-09-12T05:32:06;25.10;;;20.83;;
25497;SDS011;13406;53.380;7.226;2023-09-12T05:34:31;24.07;;;19.40;;
25497;SDS011;13406;53.380;7.226;2023-09-12T05:36:57;30.83;;;22.50;;
25497;SDS011;13406;53.380;7.226;2023-09-12T05:39:22;26.30;;;22.03;;
25497;SDS011;13406;53.380;7.226;2023-09-12T05:41:48;22.57;;;18.77;;
25497;SDS011;13406;53.380;7.226;2023-09-12T05:44:14;23.10;;;19.70;;
25497;SDS011;13406;53.380;7.226;2023-09-12T05:46:44;26.37;;;17.40;;
25497;SDS011;13406;53.380;7.226;2023-09-12T05:49:14;19.80;;;17.50;;
25497;SDS011;13406;53.380;7.226;2023-09-12T05:51:39;24.37;;;20.73;;
25497;SDS011;13406;53.380;7.226;2023-09-12T05:54:05;22.70;;;20.10;;
25497;SDS011;13406;53.380;7.226;2023-09-12T05:56:31;19.50;;;17.50;;
25497;SDS011;13406;53.380;7.226;2023-09-12T05:58:56;24.73;;;19.50;;
25497;SDS011;13406;53.380;7.226;2023-09-12T06:01:22;24.30;;;20.13;;
25497;SDS011;13406;53.380;7.226;2023-09-12T06:03:47;22.47;;;19.90;;
25497;SDS011;13406;53.380;7.226;2023-09-12T06:06:13;19.53;;;17.40;;
25497;SDS011;13406;53.380;7.226;2023-09-12T06:08:39;21.00;;;17.80;;
25497;SDS011;13406;53.380;7.226;2023-09-12T06:11:04;20.40;;;17.13;;
25497;SDS011;13406;53.380;7.226;2023-09-12T06:13:30;21.70;;;18.40;;
25497;SDS011;13406;53.380;7.226;2023-09-12T06:15:57;21.13;;;17.60;;
25497;SDS011;13406;53.380;7.226;2023-09-12T06:18:23;21.60;;;18.77;;
25497;SDS011;13406;53.380;7.226;2023-09-12T06:20:49;23.50;;;18.80;;
25497;SDS011;13406;53.380;7.226;2023-09-12T06:23:14;21.50;;;18.60;;
25497;SDS011;13406;53.380;7.226;2023-09-12T06:25:40;19.27;;;17.23;;
25497;SDS011;13406;53.380;7.226;2023-09-12T06:28:05;19.90;;;15.93;;
25497;SDS011;13406;53.380;7.226;2023-09-12T06:30:33;20.80;;;17.83;;
25497;SDS011;13406;53.380;7.226;2023-09-12T06:32:59;20.93;;;17.50;;
25497;SDS011;13406;53.380;7.226;2023-09-12T06:35:24;19.47;;;16.73;;
25497;SDS011;13406;53.380;7.226;2023-09-12T06:37:50;19.70;;;17.17;;
25497;SDS011;13406;53.380;7.226;2023-09-12T06:40:15;22.93;;;16.97;;
25497;SDS011;13406;53.380;7.226;2023-09-12T06:42:41;19.90;;;17.17;;
25497;SDS011;13406;53.380;7.226;2023-09-12T06:45:07;20.33;;;18.13;;
25497;SDS011;13406;53.380;7.226;2023-09-12T06:47:32;19.83;;;16.83;;
25497;SDS011;13406;53.380;7.226;2023-09-12T06:49:58;20.17;;;16.83;;
25497;SDS011;13406;53.380;7.226;2023-09-12T06:52:23;19.30;;;16.37;;
25497;SDS011;13406;53.380;7.226;2023-09-12T06:54:49;17.90;;;15.77;;
25497;SDS011;13406;53.380;7.226;2023-09-12T06:57:14;22.10;;;18.20;;
25497;SDS011;13406;53.380;7.226;2023-09-12T06:59:39;20.13;;;17.57;;
25497;SDS011;13406;53.380;7.226;2023-09-12T07:02:05;20.47;;;17.10;;
25497;SDS011;13406;53.380;7.226;2023-09-12T07:04:30;19.17;;;15.80;;
25497;SDS011;13406;53.380;7.226;2023-09-12T07:06:56;22.40;;;16.00;;
25497;SDS011;13406;53.380;7.226;2023-09-12T07:09:21;19.47;;;15.83;;
25497;SDS011;13406;53.380;7.226;2023-09-12T07:11:47;23.70;;;18.00;;
25497;SDS011;13406;53.380;7.226;2023-09-12T07:14:13;20.47;;;17.27;;
25497;SDS011;13406;53.380;7.226;2023-09-12T07:16:39;20.43;;;16.67;;
25497;SDS011;13406;53.380;7.226;2023-09-12T07:19:04;18.40;;;16.13;;
25497;SDS011;13406;53.380;7.226;2023-09-12T07:21:30;19.87;;;17.20;;
25497;SDS011;13406;53.380;7.226;2023-09-12T07:23:56;20.23;;;17.50;;
25497;SDS011;13406;53.380;7.226;2023-09-12T07:26:22;21.90;;;19.50;;
25497;SDS011;13406;53.380;7.226;2023-09-12T07:28:47;18.70;;;16.70;;
25497;SDS011;13406;53.380;7.226;2023-09-12T07:31:13;24.50;;;19.70;;
25497;SDS011;13406;53.380;7.226;2023-09-12T07:33:39;20.90;;;17.37;;
25497;SDS011;13406;53.380;7.226;2023-09-12T07:36:06;19.37;;;17.00;;
25497;SDS011;13406;53.380;7.226;2023-09-12T07:38:31;19.80;;;16.03;;
25497;SDS011;13406;53.380;7.226;2023-09-12T07:40:57;21.37;;;19.07;;
25497;SDS011;13406;53.380;7.226;2023-09-12T07:43:23;23.70;;;17.03;;
25497;SDS011;13406;53.380;7.226;2023-09-12T07:45:55;19.17;;;16.40;;
25497;SDS011;13406;53.380;7.226;2023-09-12T07:48:22;19.20;;;16.03;;
25497;SDS011;13406;53.380;7.226;2023-09-12T07:50:47;24.70;;;18.37;;
25497;SDS011;13406;53.380;7.226;2023-09-12T07:53:13;24.67;;;19.20;;
25497;SDS011;13406;53.380;7.226;2023-09-12T07:55:39;20.97;;;18.20;;
25497;SDS011;13406;53.380;7.226;2023-09-12T07:58:14;18.43;;;16.07;;
25497;SDS011;13406;53.380;7.226;2023-09-12T08:00:41;19.03;;;17.00;;
25497;SDS011;13406;53.380;7.226;2023-09-12T08:03:06;20.50;;;16.50;;
25497;SDS011;13406;53.380;7.226;2023-09-12T08:05:32;26.53;;;21.23;;
25497;SDS011;13406;53.380;7.226;2023-09-12T08:07:57;27.47;;;21.43;;
25497;SDS011;13406;53.380;7.226;2023-09-12T08:10:23;27.20;;;22.67;;
25497;SDS011;13406;53.380;7.226;2023-09-12T08:12:48;25.10;;;19.33;;
25497;SDS011;13406;53.380;7.226;2023-09-12T08:15:14;28.20;;;22.97;;
25497;SDS011;13406;53.380;7.226;2023-09-12T08:17:39;27.90;;;22.37;;
25497;SDS011;13406;53.380;7.226;2023-09-12T08:20:06;26.77;;;22.30;;
25497;SDS011;13406;53.380;7.226;2023-09-12T08:22:37;29.60;;;24.80;;
25497;SDS011;13406;53.380;7.226;2023-09-12T08:25:04;30.90;;;26.10;;
25497;SDS011;13406;53.380;7.226;2023-09-12T08:27:29;32.60;;;27.13;;
25497;SDS011;13406;53.380;7.226;2023-09-12T08:29:55;28.13;;;25.03;;
25497;SDS011;13406;53.380;7.226;2023-09-12T08:32:20;32.73;;;27.93;;
25497;SDS011;13406;53.380;7.226;2023-09-12T08:34:46;39.60;;;31.07;;
25497;SDS011;13406;53.380;7.226;2023-09-12T08:37:11;36.40;;;28.50;;
25497;SDS011;13406;53.380;7.226;2023-09-12T08:39:41;33.00;;;27.87;;
25497;SDS011;13406;53.380;7.226;2023-09-12T08:42:13;32.30;;;27.80;;
25497;SDS011;13406;53.380;7.226;2023-09-12T08:44:41;36.77;;;29.23;;
25497;SDS011;13406;53.380;7.226;2023-09-12T08:47:07;34.90;;;27.60;;
25497;SDS011;13406;53.380;7.226;2023-09-12T08:49:35;32.50;;;28.13;;
25497;SDS011;13406;53.380;7.226;2023-09-12T08:52:02;29.80;;;26.37;;
25497;SDS011;13406;53.380;7.226;2023-09-12T08:54:27;34.40;;;26.63;;
25497;SDS011;13406;53.380;7.226;2023-09-12T08:56:53;26.80;;;23.37;;
25497;SDS011;13406;53.380;7.226;2023-09-12T08:59:19;31.77;;;26.47;;
25497;SDS011;13406;53.380;7.226;2023-09-12T09:01:45;31.37;;;27.27;;
25497;SDS011;13406;53.380;7.226;2023-09-12T09:04:12;31.77;;;26.70;;
25497;SDS011;13406;53.380;7.226;2023-09-12T09:06:38;40.20;;;33.03;;
25497;SDS011;13406;53.380;7.226;2023-09-12T09:09:07;37.07;;;30.33;;
25497;SDS011;13406;53.380;7.226;2023-09-12T09:11:33;46.40;;;38.00;;
25497;SDS011;13406;53.380;7.226;2023-09-12T09:14:00;46.73;;;38.10;;
25497;SDS011;13406;53.380;7.226;2023-09-12T09:16:27;48.33;;;38.97;;
25497;SDS011;13406;53.380;7.226;2023-09-12T09:19:03;51.43;;;39.77;;
25497;SDS011;13406;53.380;7.226;2023-09-12T09:21:35;46.33;;;37.43;;
25497;SDS011;13406;53.380;7.226;2023-09-12T09:24:07;50.00;;;37.57;;
25497;SDS011;13406;53.380;7.226;2023-09-12T09:26:41;41.07;;;32.37;;
25497;SDS011;13406;53.380;7.226;2023-09-12T09:29:08;39.50;;;32.40;;
25497;SDS011;13406;53.380;7.226;2023-09-12T09:31:35;34.53;;;29.77;;
25497;SDS011;13406;53.380;7.226;2023-09-12T09:34:02;32.53;;;27.70;;
25497;SDS011;13406;53.380;7.226;2023-09-12T09:36:29;34.30;;;28.77;;
25497;SDS011;13406;53.380;7.226;2023-09-12T09:38:56;31.73;;;25.20;;
25497;SDS011;13406;53.380;7.226;2023-09-12T09:41:24;27.00;;;23.43;;
25497;SDS011;13406;53.380;7.226;2023-09-12T09:43:50;25.80;;;22.47;;
25497;SDS011;13406;53.380;7.226;2023-09-12T09:46:17;27.30;;;24.30;;
25497;SDS011;13406;53.380;7.226;2023-09-12T09:48:49;29.20;;;24.10;;
25497;SDS011;13406;53.380;7.226;2023-09-12T09:51:15;28.03;;;24.83;;
25497;SDS011;13406;53.380;7.226;2023-09-12T09:53:41;28.00;;;23.47;;
25497;SDS011;13406;53.380;7.226;2023-09-12T09:58:36;28.00;;;24.07;;
25497;SDS011;13406;53.380;7.226;2023-09-12T10:01:02;25.70;;;23.00;;
25497;SDS011;13406;53.380;7.226;2023-09-12T10:03:33;24.17;;;20.97;;
25497;SDS011;13406;53.380;7.226;2023-09-12T10:06:01;29.10;;;23.63;;
25497;SDS011;13406;53.380;7.226;2023-09-12T10:08:29;31.57;;;25.27;;
25497;SDS011;13406;53.380;7.226;2023-09-12T10:10:57;26.10;;;22.80;;
25497;SDS011;13406;53.380;7.226;2023-09-12T10:13:24;30.70;;;27.27;;
25497;SDS011;13406;53.380;7.226;2023-09-12T10:15:56;26.63;;;23.83;;
25497;SDS011;13406;53.380;7.226;2023-09-12T10:18:23;32.30;;;25.60;;
25497;SDS011;13406;53.380;7.226;2023-09-12T10:20:52;23.50;;;21.00;;
25497;SDS011;13406;53.380;7.226;2023-09-12T10:23:25;31.83;;;26.50;;
25497;SDS011;13406;53.380;7.226;2023-09-12T10:25:55;27.67;;;23.53;;
25497;SDS011;13406;53.380;7.226;2023-09-12T10:28:22;32.90;;;27.20;;
25497;SDS011;13406;53.380;7.226;2023-09-12T10:30:49;27.47;;;22.20;;
25497;SDS011;13406;53.380;7.226;2023-09-12T10:33:16;27.90;;;24.90;;
25497;SDS011;13406;53.380;7.226;2023-09-12T10:35:42;27.03;;;23.37;;
25497;SDS011;13406;53.380;7.226;2023-09-12T10:38:09;32.47;;;26.70;;
25497;SDS011;13406;53.380;7.226;2023-09-12T10:40:39;29.80;;;25.37;;
25497;SDS011;13406;53.380;7.226;2023-09-12T10:43:05;30.77;;;24.03;;
25497;SDS011;13406;53.380;7.226;2023-09-12T10:45:34;26.03;;;22.40;;
25497;SDS011;13406;53.380;7.226;2023-09-12T10:48:02;25.70;;;22.73;;
25497;SDS011;13406;53.380;7.226;2023-09-12T10:50:28;25.23;;;22.50;;
25497;SDS011;13406;53.380;7.226;2023-09-12T10:52:54;24.17;;;21.33;;
25497;SDS011;13406;53.380;7.226;2023-09-12T10:55:19;18.27;;;16.30;;
25497;SDS011;13406;53.380;7.226;2023-09-12T10:58:04;26.23;;;21.67;;
25497;SDS011;13406;53.380;7.226;2023-09-12T11:00:31;22.13;;;18.57;;
25497;SDS011;13406;53.380;7.226;2023-09-12T11:02:58;19.47;;;17.20;;
25497;SDS011;13406;53.380;7.226;2023-09-12T11:08:00;25.60;;;21.43;;
25497;SDS011;13406;53.380;7.226;2023-09-12T11:10:29;22.63;;;19.10;;
25497;SDS011;13406;53.380;7.226;2023-09-12T11:12:56;20.53;;;17.47;;
25497;SDS011;13406;53.380;7.226;2023-09-12T11:15:23;26.43;;;20.77;;
25497;SDS011;13406;53.380;7.226;2023-09-12T11:18:00;24.70;;;21.20;;
25497;SDS011;13406;53.380;7.226;2023-09-12T11:20:47;22.80;;;19.43;;
25497;SDS011;13406;53.380;7.226;2023-09-12T11:23:14;23.30;;;20.90;;
25497;SDS011;13406;53.380;7.226;2023-09-12T11:25:39;25.63;;;21.83;;
25497;SDS011;13406;53.380;7.226;2023-09-12T11:28:05;18.30;;;16.40;;
25497;SDS011;13406;53.380;7.226;2023-09-12T11:30:31;22.57;;;18.37;;
25497;SDS011;13406;53.380;7.226;2023-09-12T11:32:57;21.17;;;18.30;;
25497;SDS011;13406;53.380;7.226;2023-09-12T11:35:25;20.50;;;17.37;;
25497;SDS011;13406;53.380;7.226;2023-09-12T11:37:59;23.37;;;20.73;;
25497;SDS011;13406;53.380;7.226;2023-09-12T11:40:25;20.37;;;18.20;;
25497;SDS011;13406;53.380;7.226;2023-09-12T11:43:06;20.77;;;18.10;;
25497;SDS011;13406;53.380;7.226;2023-09-12T11:45:33;18.10;;;15.50;;
25497;SDS011;13406;53.380;7.226;2023-09-12T11:47:59;18.97;;;16.30;;
25497;SDS011;13406;53.380;7.226;2023-09-12T11:50:34;24.53;;;20.57;;
25497;SDS011;13406;53.380;7.226;2023-09-12T11:53:04;22.20;;;18.77;;
25497;SDS011;13406;53.380;7.226;2023-09-12T11:55:32;17.33;;;15.40;;
25497;SDS011;13406;53.380;7.226;2023-09-12T11:58:00;20.90;;;18.63;;
25497;SDS011;13406;53.380;7.226;2023-09-12T12:00:25;19.70;;;15.90;;
25497;SDS011;13406;53.380;7.226;2023-09-12T12:02:53;25.47;;;21.23;;
25497;SDS011;13406;53.380;7.226;2023-09-12T12:05:19;23.23;;;19.80;;
25497;SDS011;13406;53.380;7.226;2023-09-12T12:07:46;19.40;;;16.50;;
25497;SDS011;13406;53.380;7.226;2023-09-12T12:10:13;28.20;;;20.63;;
25497;SDS011;13406;53.380;7.226;2023-09-12T12:12:39;19.70;;;17.60;;
25497;SDS011;13406;53.380;7.226;2023-09-12T12:15:09;19.60;;;16.10;;
25497;SDS011;13406;53.380;7.226;2023-09-12T12:17:36;20.37;;;16.97;;
25497;SDS011;13406;53.380;7.226;2023-09-12T12:20:06;25.37;;;18.80;;
25497;SDS011;13406;53.380;7.226;2023-09-12T12:22:33;23.93;;;20.13;;
25497;SDS011;13406;53.380;7.226;2023-09-12T12:25:05;22.97;;;18.50;;
25497;SDS011;13406;53.380;7.226;2023-09-12T12:27:37;20.07;;;16.90;;
25497;SDS011;13406;53.380;7.226;2023-09-12T12:30:07;25.37;;;22.67;;
25497;SDS011;13406;53.380;7.226;2023-09-12T12:32:41;23.00;;;20.10;;
25497;SDS011;13406;53.380;7.226;2023-09-12T12:35:08;22.47;;;20.10;;
25497;SDS011;13406;53.380;7.226;2023-09-12T12:37:35;23.63;;;20.40;;
25497;SDS011;13406;53.380;7.226;2023-09-12T12:40:02;24.97;;;21.90;;
25497;SDS011;13406;53.380;7.226;2023-09-12T12:42:34;17.77;;;15.90;;
25497;SDS011;13406;53.380;7.226;2023-09-12T12:45:16;22.80;;;18.70;;
25497;SDS011;13406;53.380;7.226;2023-09-12T12:47:46;23.07;;;18.50;;
25497;SDS011;13406;53.380;7.226;2023-09-12T12:50:16;25.13;;;21.20;;
25497;SDS011;13406;53.380;7.226;2023-09-12T12:52:46;22.43;;;19.50;;
25497;SDS011;13406;53.380;7.226;2023-09-12T12:55:12;23.00;;;19.33;;
25497;SDS011;13406;53.380;7.226;2023-09-12T12:57:39;23.73;;;20.63;;
25497;SDS011;13406;53.380;7.226;2023-09-12T13:00:08;21.57;;;18.27;;
25497;SDS011;13406;53.380;7.226;2023-09-12T13:02:38;20.80;;;15.40;;
25497;SDS011;13406;53.380;7.226;2023-09-12T13:05:06;19.53;;;16.27;;
25497;SDS011;13406;53.380;7.226;2023-09-12T13:07:44;16.67;;;12.93;;
25497;SDS011;13406;53.380;7.226;2023-09-12T13:10:09;19.10;;;15.17;;
25497;SDS011;13406;53.380;7.226;2023-09-12T13:12:35;23.30;;;16.97;;
25497;SDS011;13406;53.380;7.226;2023-09-12T13:15:01;20.83;;;16.90;;
25497;SDS011;13406;53.380;7.226;2023-09-12T13:17:26;16.37;;;14.00;;
25497;SDS011;13406;53.380;7.226;2023-09-12T13:19:52;23.30;;;20.40;;
25497;SDS011;13406;53.380;7.226;2023-09-12T13:22:17;19.23;;;15.93;;
25497;SDS011;13406;53.380;7.226;2023-09-12T13:24:43;18.20;;;15.53;;
25497;SDS011;13406;53.380;7.226;2023-09-12T13:27:08;20.30;;;15.13;;
25497;SDS011;13406;53.380;7.226;2023-09-12T13:29:33;21.23;;;17.33;;
25497;SDS011;13406;53.380;7.226;2023-09-12T13:31:59;20.87;;;16.70;;
25497;SDS011;13406;53.380;7.226;2023-09-12T13:34:25;21.57;;;16.20;;
25497;SDS011;13406;53.380;7.226;2023-09-12T13:36:50;17.00;;;14.53;;
25497;SDS011;13406;53.380;7.226;2023-09-12T13:39:16;19.07;;;15.10;;
25497;SDS011;13406;53.380;7.226;2023-09-12T13:41:42;17.93;;;15.20;;
25497;SDS011;13406;53.380;7.226;2023-09-12T13:44:08;11.00;;;7.87;;
25497;SDS011;13406;53.380;7.226;2023-09-12T13:46:35;8.53;;;3.43;;
25497;SDS011;13406;53.380;7.226;2023-09-12T13:49:01;9.73;;;3.37;;
25497;SDS011;13406;53.380;7.226;2023-09-12T13:51:28;8.53;;;2.90;;
25497;SDS011;13406;53.380;7.226;2023-09-12T13:53:54;7.47;;;2.53;;
25497;SDS011;13406;53.380;7.226;2023-09-12T13:56:19;7.40;;;2.20;;
25497;SDS011;13406;53.380;7.226;2023-09-12T13:58:45;2.90;;;1.33;;
25497;SDS011;13406;53.380;7.226;2023-09-12T14:01:10;6.13;;;1.80;;
25497;SDS011;13406;53.380;7.226;2023-09-12T14:03:36;2.87;;;1.40;;
25497;SDS011;13406;53.380;7.226;2023-09-12T14:06:02;3.23;;;1.30;;
25497;SDS011;13406;53.380;7.226;2023-09-12T14:08:27;3.53;;;1.43;;
25497;SDS011;13406;53.380;7.226;2023-09-12T14:10:55;4.37;;;1.40;;
25497;SDS011;13406;53.380;7.226;2023-09-12T14:13:21;3.00;;;1.40;;
25497;SDS011;13406;53.380;7.226;2023-09-12T14:15:47;3.90;;;1.53;;
25497;SDS011;13406;53.380;7.226;2023-09-12T14:18:14;6.53;;;2.10;;
25497;SDS011;13406;53.380;7.226;2023-09-12T14:20:43;3.73;;;1.80;;
25497;SDS011;13406;53.380;7.226;2023-09-12T14:23:09;3.93;;;1.90;;
25497;SDS011;13406;53.380;7.226;2023-09-12T14:25:34;5.10;;;1.90;;
25497;SDS011;13406;53.380;7.226;2023-09-12T14:28:00;5.23;;;1.80;;
25497;SDS011;13406;53.380;7.226;2023-09-12T14:30:25;3.77;;;1.40;;
25497;SDS011;13406;53.380;7.226;2023-09-12T14:32:59;4.20;;;1.53;;